PWSweather.com
Personal Weather Stations
Station Observations
KVAGLENALL
West Henrico, Glen Allen, VA 23060-6503

West HenricoGlen Allen, VA 23060-6503

Lat: 37.6554, Lon: -77.5693

Elevation: 273

Station Type: Davis Vantage Pro II

www.glenallenweather.com

High Low Average
Temperature 86.6°F30.3°C 73.1°F22.8°C 79.0°F26.1°C
Dew Point 78.4°F25.8°C 71.8°F22.1°C 74.9°F23.8°C
Winds 8.1 mph 13.0 kmh 0.1 mph 0.2 kmh 2.0 mph S3.2 kmh S
Wind Gusts 12.2 mph19.6 kmh 0.1 mph0.2 kmh 4.0 mph6.4 kmh
Humidity 96% 71% 88%
Pressure 29.95 in1014.2 mb 29.85 in1010.8 mb -
Precipitation 0.00 in0.0 mm - -
Hour Temp Dew Point Humidity Winds Wind Gusts Pressure Precip Precip Rate Daily Precip Total
12:00 AM 77.4°F25.2°C 74.9°F23.8°C 92% 0.1 mph S0.2 kmh S 2.1 mph3.4 kmh 29.95 in1014.2 mb 0.00 in0.0 mm 0.00 in0.0 mm 0.00 in0.0 mm
12:15 AM 77.3°F25.2°C 75.1°F23.9°C 93% 3.0 mph S4.8 kmh S 6.1 mph9.8 kmh 29.95 in1014.2 mb 0.01 in0.3 mm 0.04 in1.0 mm 0.01 in0.3 mm
12:30 AM 77.1°F25.1°C 74.9°F23.8°C 93% 0.1 mph S0.2 kmh S 4.1 mph6.6 kmh 29.95 in1014.2 mb 0.01 in0.3 mm 0.00 in0.0 mm 0.01 in0.3 mm
12:45 AM 76.9°F24.9°C 75.0°F23.9°C 94% 5.1 mph S8.2 kmh S 7.1 mph11.4 kmh 29.95 in1014.2 mb 0.01 in0.3 mm 0.00 in0.0 mm 0.01 in0.3 mm
01:00 AM 76.8°F24.9°C 74.9°F23.8°C 94% 5.1 mph S8.2 kmh S 5.1 mph8.2 kmh 29.95 in1014.2 mb 0.01 in0.3 mm 0.00 in0.0 mm 0.01 in0.3 mm
01:15 AM 76.6°F24.8°C 74.7°F23.7°C 94% 4.1 mph SSW6.6 kmh SSW 5.1 mph8.2 kmh 29.95 in1014.2 mb 0.00 in0.0 mm 0.00 in0.0 mm 0.01 in0.3 mm
01:30 AM 76.5°F24.7°C 74.6°F23.7°C 94% 4.1 mph S6.6 kmh S 7.1 mph11.4 kmh 29.95 in1014.2 mb 0.00 in0.0 mm 0.00 in0.0 mm 0.01 in0.3 mm
01:45 AM 76.4°F24.7°C 74.5°F23.6°C 94% 1.0 mph S1.6 kmh S 3.1 mph5.0 kmh 29.95 in1014.2 mb 0.00 in0.0 mm 0.00 in0.0 mm 0.01 in0.3 mm
02:00 AM 76.2°F24.6°C 74.3°F23.5°C 94% 0.1 mph S0.2 kmh S 0.1 mph0.2 kmh 29.94 in1013.9 mb 0.00 in0.0 mm 0.00 in0.0 mm 0.01 in0.3 mm
02:15 AM 76.1°F24.5°C 74.2°F23.4°C 94% 0.1 mph S0.2 kmh S 2.1 mph3.4 kmh 29.94 in1013.9 mb 0.00 in0.0 mm 0.00 in0.0 mm 0.01 in0.3 mm
02:30 AM 76.1°F24.5°C 74.2°F23.4°C 94% 0.1 mph S0.2 kmh S 3.1 mph5.0 kmh 29.93 in1013.5 mb 0.00 in0.0 mm 0.00 in0.0 mm 0.01 in0.3 mm
02:45 AM 76.0°F24.4°C 74.1°F23.4°C 94% 0.1 mph S0.2 kmh S 0.1 mph0.2 kmh 29.93 in1013.5 mb 0.00 in0.0 mm 0.00 in0.0 mm 0.01 in0.3 mm
03:00 AM 76.0°F24.4°C 74.1°F23.4°C 94% 0.1 mph S0.2 kmh S 0.1 mph0.2 kmh 29.93 in1013.5 mb 0.00 in0.0 mm 0.00 in0.0 mm 0.01 in0.3 mm
03:15 AM 76.0°F24.4°C 74.5°F23.6°C 95% 3.0 mph S4.8 kmh S 3.1 mph5.0 kmh 29.93 in1013.5 mb 0.00 in0.0 mm 0.00 in0.0 mm 0.01 in0.3 mm
03:30 AM 75.9°F24.4°C 74.4°F23.6°C 95% 0.1 mph S0.2 kmh S 0.1 mph0.2 kmh 29.93 in1013.5 mb 0.00 in0.0 mm 0.00 in0.0 mm 0.01 in0.3 mm
03:45 AM 75.8°F24.3°C 74.3°F23.5°C 95% 0.1 mph S0.2 kmh S 1.1 mph1.8 kmh 29.92 in1013.2 mb 0.00 in0.0 mm 0.00 in0.0 mm 0.01 in0.3 mm
04:00 AM 75.7°F24.3°C 74.2°F23.4°C 95% 0.1 mph S0.2 kmh S 1.1 mph1.8 kmh 29.93 in1013.5 mb 0.00 in0.0 mm 0.00 in0.0 mm 0.01 in0.3 mm
04:15 AM 75.6°F24.2°C 74.1°F23.4°C 95% 0.1 mph S0.2 kmh S 2.1 mph3.4 kmh 29.93 in1013.5 mb 0.00 in0.0 mm 0.00 in0.0 mm 0.01 in0.3 mm
04:30 AM 75.7°F24.3°C 74.2°F23.4°C 95% 0.1 mph S0.2 kmh S 2.1 mph3.4 kmh 29.93 in1013.5 mb 0.00 in0.0 mm 0.00 in0.0 mm 0.01 in0.3 mm
04:45 AM 75.4°F24.1°C 73.9°F23.3°C 95% 0.1 mph S0.2 kmh S 0.1 mph0.2 kmh 29.93 in1013.5 mb 0.00 in0.0 mm 0.00 in0.0 mm 0.01 in0.3 mm
05:00 AM 75.4°F24.1°C 73.9°F23.3°C 95% 1.0 mph S1.6 kmh S 2.1 mph3.4 kmh 29.93 in1013.5 mb 0.00 in0.0 mm 0.00 in0.0 mm 0.01 in0.3 mm
05:15 AM 75.3°F24.1°C 73.8°F23.2°C 95% 2.0 mph S3.2 kmh S 3.1 mph5.0 kmh 29.93 in1013.5 mb 0.00 in0.0 mm 0.00 in0.0 mm 0.01 in0.3 mm
05:30 AM 75.3°F24.1°C 73.4°F23.0°C 94% 0.1 mph S0.2 kmh S 0.1 mph0.2 kmh 29.93 in1013.5 mb 0.00 in0.0 mm 0.00 in0.0 mm 0.01 in0.3 mm
05:45 AM 75.2°F24.0°C 73.7°F23.2°C 95% 3.0 mph S4.8 kmh S 5.1 mph8.2 kmh 29.93 in1013.5 mb 0.00 in0.0 mm 0.00 in0.0 mm 0.01 in0.3 mm
06:00 AM 75.2°F24.0°C 73.3°F22.9°C 94% 0.1 mph S0.2 kmh S 7.1 mph11.4 kmh 29.93 in1013.5 mb 0.01 in0.3 mm 0.01 in0.3 mm 0.02 in0.5 mm
06:15 AM 75.2°F24.0°C 73.3°F22.9°C 94% 3.0 mph S4.8 kmh S 3.1 mph5.0 kmh 29.93 in1013.5 mb 0.01 in0.3 mm 0.00 in0.0 mm 0.02 in0.5 mm
06:30 AM 75.1°F23.9°C 73.2°F22.9°C 94% 4.1 mph N6.6 kmh N 6.1 mph9.8 kmh 29.94 in1013.9 mb 0.01 in0.3 mm 0.00 in0.0 mm 0.02 in0.5 mm
06:45 AM 75.0°F23.9°C 72.8°F22.7°C 93% 5.1 mph W8.2 kmh W 9.1 mph14.6 kmh 29.94 in1013.9 mb 0.01 in0.3 mm 0.00 in0.0 mm 0.02 in0.5 mm
07:00 AM 74.9°F23.8°C 73.0°F22.8°C 94% 3.0 mph S4.8 kmh S 5.1 mph8.2 kmh 29.94 in1013.9 mb 0.00 in0.0 mm 0.00 in0.0 mm 0.02 in0.5 mm
07:15 AM 74.8°F23.8°C 72.6°F22.6°C 93% 2.0 mph S3.2 kmh S 9.1 mph14.6 kmh 29.94 in1013.9 mb 0.00 in0.0 mm 0.00 in0.0 mm 0.02 in0.5 mm
07:30 AM 74.6°F23.7°C 72.4°F22.4°C 93% 8.1 mph SSW13.0 kmh SSW 8.1 mph13.0 kmh 29.95 in1014.2 mb 0.00 in0.0 mm 0.00 in0.0 mm 0.02 in0.5 mm
07:45 AM 74.2°F23.4°C 72.3°F22.4°C 94% 7.1 mph SSW11.4 kmh SSW 12.2 mph19.6 kmh 29.95 in1014.2 mb 0.01 in0.3 mm 0.04 in1.0 mm 0.03 in0.8 mm
08:00 AM 73.7°F23.2°C 72.2°F22.3°C 95% 4.1 mph S6.6 kmh S 9.1 mph14.6 kmh 29.95 in1014.2 mb 0.06 in1.5 mm 0.07 in1.8 mm 0.08 in2.0 mm
08:15 AM 73.5°F23.1°C 72.0°F22.2°C 95% 1.0 mph SSW1.6 kmh SSW 3.1 mph5.0 kmh 29.94 in1013.9 mb 0.11 in2.8 mm 0.20 in5.1 mm 0.13 in3.3 mm
08:30 AM 73.3°F22.9°C 71.8°F22.1°C 95% 1.0 mph S1.6 kmh S 5.1 mph8.2 kmh 29.94 in1013.9 mb 0.19 in4.8 mm 0.32 in8.1 mm 0.21 in5.3 mm
08:45 AM 73.1°F22.8°C 71.9°F22.2°C 96% 1.0 mph S1.6 kmh S 2.1 mph3.4 kmh 29.94 in1013.9 mb 0.20 in5.1 mm 0.04 in1.0 mm 0.22 in5.6 mm
09:00 AM 73.3°F22.9°C 72.1°F22.3°C 96% 0.1 mph S0.2 kmh S 0.1 mph0.2 kmh 29.94 in1013.9 mb 0.18 in4.6 mm 0.00 in0.0 mm 0.22 in5.6 mm
09:15 AM 73.8°F23.2°C 72.6°F22.6°C 96% 0.1 mph S0.2 kmh S 4.1 mph6.6 kmh 29.94 in1013.9 mb 0.13 in3.3 mm 0.00 in0.0 mm 0.22 in5.6 mm
09:30 AM 74.3°F23.5°C 73.1°F22.8°C 96% 0.1 mph N0.2 kmh N 0.1 mph0.2 kmh 29.93 in1013.5 mb 0.05 in1.3 mm 0.00 in0.0 mm 0.22 in5.6 mm
09:45 AM 75.1°F23.9°C 73.6°F23.1°C 95% 0.1 mph SSE0.2 kmh SSE 1.1 mph1.8 kmh 29.93 in1013.5 mb 0.03 in0.8 mm 0.00 in0.0 mm 0.22 in5.6 mm
10:00 AM 75.4°F24.1°C 73.5°F23.1°C 94% 4.1 mph S6.6 kmh S 4.1 mph6.6 kmh 29.93 in1013.5 mb 0.01 in0.3 mm 0.00 in0.0 mm 0.22 in5.6 mm
10:15 AM 75.5°F24.2°C 73.6°F23.1°C 94% 4.1 mph S6.6 kmh S 6.1 mph9.8 kmh 29.93 in1013.5 mb 0.00 in0.0 mm 0.00 in0.0 mm 0.22 in5.6 mm
10:30 AM 76.2°F24.6°C 74.3°F23.5°C 94% 0.1 mph SSW0.2 kmh SSW 4.1 mph6.6 kmh 29.93 in1013.5 mb 0.00 in0.0 mm 0.00 in0.0 mm 0.22 in5.6 mm
10:45 AM 77.4°F25.2°C 74.6°F23.7°C 91% 1.0 mph S1.6 kmh S 5.1 mph8.2 kmh 29.92 in1013.2 mb 0.00 in0.0 mm 0.00 in0.0 mm 0.22 in5.6 mm
11:00 AM 77.9°F25.5°C 75.1°F23.9°C 91% 3.0 mph SSW4.8 kmh SSW 3.1 mph5.0 kmh 29.93 in1013.5 mb 0.00 in0.0 mm 0.00 in0.0 mm 0.22 in5.6 mm
11:15 AM 78.9°F26.1°C 75.0°F23.9°C 88% 0.1 mph SW0.2 kmh SW 1.1 mph1.8 kmh 29.93 in1013.5 mb 0.00 in0.0 mm 0.00 in0.0 mm 0.22 in5.6 mm
11:30 AM 79.0°F26.1°C 74.8°F23.8°C 87% 8.1 mph SSW13.0 kmh SSW 8.1 mph13.0 kmh 29.95 in1014.2 mb 0.00 in0.0 mm 0.00 in0.0 mm 0.22 in5.6 mm
11:45 AM 78.7°F25.9°C 74.2°F23.4°C 86% 5.1 mph S8.2 kmh S 10.1 mph16.3 kmh 29.95 in1014.2 mb 0.00 in0.0 mm 0.00 in0.0 mm 0.22 in5.6 mm
12:00 PM 80.2°F26.8°C 76.3°F24.6°C 88% 1.0 mph S1.6 kmh S 5.1 mph8.2 kmh 29.94 in1013.9 mb 0.00 in0.0 mm 0.00 in0.0 mm 0.22 in5.6 mm
12:15 PM 81.1°F27.3°C 75.5°F24.2°C 83% 0.1 mph S0.2 kmh S 4.1 mph6.6 kmh 29.93 in1013.5 mb 0.00 in0.0 mm 0.00 in0.0 mm 0.22 in5.6 mm
12:30 PM 81.4°F27.4°C 75.8°F24.3°C 83% 0.1 mph SW0.2 kmh SW 2.1 mph3.4 kmh 29.93 in1013.5 mb 0.00 in0.0 mm 0.00 in0.0 mm 0.22 in5.6 mm
12:45 PM 82.0°F27.8°C 76.0°F24.4°C 82% 0.1 mph S0.2 kmh S 0.1 mph0.2 kmh 29.92 in1013.2 mb 0.00 in0.0 mm 0.00 in0.0 mm 0.22 in5.6 mm
01:00 PM 82.9°F28.3°C 76.1°F24.5°C 80% 6.1 mph S9.8 kmh S 9.1 mph14.6 kmh 29.92 in1013.2 mb 0.00 in0.0 mm 0.00 in0.0 mm 0.22 in5.6 mm
01:15 PM 84.2°F29.0°C 76.6°F24.8°C 78% 0.1 mph S0.2 kmh S 5.1 mph8.2 kmh 29.92 in1013.2 mb 0.00 in0.0 mm 0.00 in0.0 mm 0.22 in5.6 mm
01:30 PM 84.6°F29.2°C 75.4°F24.1°C 74% 1.0 mph SSW1.6 kmh SSW 7.1 mph11.4 kmh 29.92 in1013.2 mb 0.00 in0.0 mm 0.00 in0.0 mm 0.22 in5.6 mm
01:45 PM 84.1°F28.9°C 75.3°F24.1°C 75% 0.1 mph S0.2 kmh S 4.1 mph6.6 kmh 29.92 in1013.2 mb 0.00 in0.0 mm 0.00 in0.0 mm 0.22 in5.6 mm
02:00 PM 83.5°F28.6°C 75.9°F24.4°C 78% 0.1 mph S0.2 kmh S 5.1 mph8.2 kmh 29.92 in1013.2 mb 0.00 in0.0 mm 0.00 in0.0 mm 0.22 in5.6 mm
02:15 PM 83.6°F28.7°C 75.7°F24.3°C 77% 2.0 mph SSE3.2 kmh SSE 6.1 mph9.8 kmh 29.91 in1012.9 mb 0.00 in0.0 mm 0.00 in0.0 mm 0.22 in5.6 mm
02:30 PM 83.1°F28.4°C 75.2°F24.0°C 77% 0.1 mph SSE0.2 kmh SSE 0.1 mph0.2 kmh 29.91 in1012.9 mb 0.00 in0.0 mm 0.00 in0.0 mm 0.22 in5.6 mm
02:45 PM 82.9°F28.3°C 76.9°F24.9°C 82% 0.1 mph SSE0.2 kmh SSE 1.1 mph1.8 kmh 29.90 in1012.5 mb 0.00 in0.0 mm 0.00 in0.0 mm 0.22 in5.6 mm
03:00 PM 83.0°F28.3°C 76.6°F24.8°C 81% 0.1 mph SSE0.2 kmh SSE 1.1 mph1.8 kmh 29.90 in1012.5 mb 0.00 in0.0 mm 0.00 in0.0 mm 0.22 in5.6 mm
03:15 PM 83.0°F28.3°C 76.2°F24.6°C 80% 0.1 mph SSW0.2 kmh SSW 5.1 mph8.2 kmh 29.90 in1012.5 mb 0.00 in0.0 mm 0.00 in0.0 mm 0.22 in5.6 mm
03:30 PM 84.5°F29.2°C 78.4°F25.8°C 82% 2.0 mph SSW3.2 kmh SSW 3.1 mph5.0 kmh 29.89 in1012.2 mb 0.00 in0.0 mm 0.00 in0.0 mm 0.22 in5.6 mm
03:45 PM 84.5°F29.2°C 76.9°F24.9°C 78% 2.0 mph S3.2 kmh S 3.1 mph5.0 kmh 29.89 in1012.2 mb 0.00 in0.0 mm 0.00 in0.0 mm 0.22 in5.6 mm
04:00 PM 85.1°F29.5°C 76.3°F24.6°C 75% 0.1 mph S0.2 kmh S 4.1 mph6.6 kmh 29.88 in1011.9 mb 0.00 in0.0 mm 0.00 in0.0 mm 0.22 in5.6 mm
04:15 PM 85.4°F29.7°C 76.6°F24.8°C 75% 0.1 mph S0.2 kmh S 1.1 mph1.8 kmh 29.87 in1011.5 mb 0.00 in0.0 mm 0.00 in0.0 mm 0.22 in5.6 mm
04:30 PM 86.6°F30.3°C 76.1°F24.5°C 71% 0.1 mph SW0.2 kmh SW 3.1 mph5.0 kmh 29.86 in1011.2 mb 0.00 in0.0 mm 0.00 in0.0 mm 0.22 in5.6 mm
04:45 PM 85.9°F29.9°C 75.9°F24.4°C 72% 1.0 mph S1.6 kmh S 5.1 mph8.2 kmh 29.86 in1011.2 mb 0.00 in0.0 mm 0.00 in0.0 mm 0.22 in5.6 mm
05:00 PM 86.1°F30.1°C 77.7°F25.4°C 76% 3.0 mph SSW4.8 kmh SSW 5.1 mph8.2 kmh 29.87 in1011.5 mb 0.00 in0.0 mm 0.00 in0.0 mm 0.22 in5.6 mm
05:15 PM 85.4°F29.7°C 77.0°F25.0°C 76% 0.1 mph WSW0.2 kmh WSW 0.1 mph0.2 kmh 29.86 in1011.2 mb 0.00 in0.0 mm 0.00 in0.0 mm 0.22 in5.6 mm
05:30 PM 84.9°F29.4°C 77.3°F25.2°C 78% 0.1 mph SW0.2 kmh SW 0.1 mph0.2 kmh 29.87 in1011.5 mb 0.00 in0.0 mm 0.00 in0.0 mm 0.22 in5.6 mm
05:45 PM 85.3°F29.6°C 77.7°F25.4°C 78% 0.1 mph SW0.2 kmh SW 0.1 mph0.2 kmh 29.87 in1011.5 mb 0.00 in0.0 mm 0.00 in0.0 mm 0.22 in5.6 mm
06:00 PM 84.9°F29.4°C 76.5°F24.7°C 76% 0.1 mph SW0.2 kmh SW 1.1 mph1.8 kmh 29.86 in1011.2 mb 0.00 in0.0 mm 0.00 in0.0 mm 0.22 in5.6 mm
06:15 PM 85.1°F29.5°C 76.7°F24.8°C 76% 0.1 mph S0.2 kmh S 1.1 mph1.8 kmh 29.86 in1011.2 mb 0.00 in0.0 mm 0.00 in0.0 mm 0.22 in5.6 mm
06:30 PM 84.4°F29.1°C 77.2°F25.1°C 79% 0.1 mph SE0.2 kmh SE 0.1 mph0.2 kmh 29.86 in1011.2 mb 0.00 in0.0 mm 0.00 in0.0 mm 0.22 in5.6 mm
06:45 PM 84.2°F29.0°C 76.2°F24.6°C 77% 3.0 mph SSW4.8 kmh SSW 6.1 mph9.8 kmh 29.85 in1010.8 mb 0.00 in0.0 mm 0.00 in0.0 mm 0.22 in5.6 mm
07:00 PM 84.2°F29.0°C 76.2°F24.6°C 77% 3.0 mph SSW4.8 kmh SSW 5.1 mph8.2 kmh 29.86 in1011.2 mb 0.00 in0.0 mm 0.00 in0.0 mm 0.22 in5.6 mm
07:15 PM 83.9°F28.8°C 76.3°F24.6°C 78% 4.1 mph S6.6 kmh S 6.1 mph9.8 kmh 29.86 in1011.2 mb 0.00 in0.0 mm 0.00 in0.0 mm 0.22 in5.6 mm
07:30 PM 83.5°F28.6°C 75.9°F24.4°C 78% 2.0 mph SSW3.2 kmh SSW 6.1 mph9.8 kmh 29.85 in1010.8 mb 0.00 in0.0 mm 0.00 in0.0 mm 0.22 in5.6 mm
07:45 PM 82.8°F28.2°C 76.4°F24.7°C 81% 2.0 mph S3.2 kmh S 5.1 mph8.2 kmh 29.86 in1011.2 mb 0.00 in0.0 mm 0.00 in0.0 mm 0.22 in5.6 mm
09:00 PM 80.2°F26.8°C 76.0°F24.4°C 87% 0.1 mph S0.2 kmh S 0.1 mph0.2 kmh 29.86 in1011.2 mb 0.01 in0.3 mm 0.01 in0.3 mm 0.23 in5.8 mm
09:30 PM 79.6°F26.4°C 75.7°F24.3°C 88% 0.1 mph S0.2 kmh S 1.1 mph1.8 kmh 29.87 in1011.5 mb 0.01 in0.3 mm 0.00 in0.0 mm 0.23 in5.8 mm
10:15 PM 78.2°F25.7°C 75.7°F24.3°C 92% 0.1 mph S0.2 kmh S 0.1 mph0.2 kmh 29.87 in1011.5 mb 0.00 in0.0 mm 0.00 in0.0 mm 0.23 in5.8 mm
11:30 PM 77.2°F25.1°C 75.3°F24.1°C 94% 0.1 mph S0.2 kmh S 1.1 mph1.8 kmh 29.89 in1012.2 mb 0.00 in0.0 mm 0.00 in0.0 mm 0.23 in5.8 mm
11:45 PM 77.1°F25.1°C 75.6°F24.2°C 95% 0.1 mph S0.2 kmh S 0.1 mph0.2 kmh 29.89 in1012.2 mb 0.00 in0.0 mm 0.00 in0.0 mm 0.23 in5.8 mm